sensor_id;sensor_type;location;lat;lon;timestamp;pressure;altitude;pressure_sealevel;temperature;humidity
10167;BME280;62970;53.130;8.244;2023-02-11T00:00:14;103073.19;;;5.18;76.60
10167;BME280;62970;53.130;8.244;2023-02-11T00:02:44;103069.84;;;5.20;76.00
10167;BME280;62970;53.130;8.244;2023-02-11T00:05:13;103065.56;;;5.21;76.12
10167;BME280;62970;53.130;8.244;2023-02-11T00:07:42;103065.59;;;5.22;75.98
10167;BME280;62970;53.130;8.244;2023-02-11T00:10:11;103069.94;;;5.23;76.41
10167;BME280;62970;53.130;8.244;2023-02-11T00:12:43;103064.78;;;5.23;76.00
10167;BME280;62970;53.130;8.244;2023-02-11T00:15:15;103071.72;;;5.24;76.03
10167;BME280;62970;53.130;8.244;2023-02-11T00:17:50;103079.47;;;5.24;76.06
10167;BME280;62970;53.130;8.244;2023-02-11T00:20:20;103084.75;;;5.27;76.46
10167;BME280;62970;53.130;8.244;2023-02-11T00:22:49;103077.88;;;5.28;76.46
10167;BME280;62970;53.130;8.244;2023-02-11T00:25:20;103072.75;;;5.29;76.05
10167;BME280;62970;53.130;8.244;2023-02-11T00:27:51;103077.97;;;5.31;76.12
10167;BME280;62970;53.130;8.244;2023-02-11T00:30:27;103084.84;;;5.30;76.37
10167;BME280;62970;53.130;8.244;2023-02-11T00:32:59;103089.19;;;5.31;76.46
10167;BME280;62970;53.130;8.244;2023-02-11T00:35:29;103053.84;;;5.32;76.53
10167;BME280;62970;53.130;8.244;2023-02-11T00:38:00;103051.28;;;5.32;76.35
10167;BME280;62970;53.130;8.244;2023-02-11T00:40:29;103044.38;;;5.32;76.23
10167;BME280;62970;53.130;8.244;2023-02-11T00:43:01;103028.94;;;5.34;76.40
10167;BME280;62970;53.130;8.244;2023-02-11T00:45:33;103022.03;;;5.33;76.55
10167;BME280;62970;53.130;8.244;2023-02-11T00:48:02;103026.38;;;5.34;76.20
10167;BME280;62970;53.130;8.244;2023-02-11T00:50:32;103036.72;;;5.34;76.21
10167;BME280;62970;53.130;8.244;2023-02-11T00:53:01;103029.00;;;5.35;76.39
10167;BME280;62970;53.130;8.244;2023-02-11T00:55:30;103034.22;;;5.37;76.13
10167;BME280;62970;53.130;8.244;2023-02-11T00:58:01;103017.81;;;5.36;76.47
10167;BME280;62970;53.130;8.244;2023-02-11T01:00:33;103035.06;;;5.36;75.96
10167;BME280;62970;53.130;8.244;2023-02-11T01:03:03;103030.81;;;5.38;76.29
10167;BME280;62970;53.130;8.244;2023-02-11T01:05:35;103029.09;;;5.38;76.49
10167;BME280;62970;53.130;8.244;2023-02-11T01:08:07;103029.97;;;5.39;76.18
10167;BME280;62970;53.130;8.244;2023-02-11T01:10:38;103023.09;;;5.40;76.34
10167;BME280;62970;53.130;8.244;2023-02-11T01:13:08;103034.38;;;5.42;76.25
10167;BME280;62970;53.130;8.244;2023-02-11T01:15:42;103020.56;;;5.41;76.09
10167;BME280;62970;53.130;8.244;2023-02-11T01:18:11;103028.38;;;5.43;76.48
10167;BME280;62970;53.130;8.244;2023-02-11T01:20:43;103030.09;;;5.42;75.99
10167;BME280;62970;53.130;8.244;2023-02-11T01:23:21;103029.25;;;5.43;76.51
10167;BME280;62970;53.130;8.244;2023-02-11T01:25:50;103028.44;;;5.44;76.28
10167;BME280;62970;53.130;8.244;2023-02-11T01:28:23;103024.13;;;5.45;76.58
10167;BME280;62970;53.130;8.244;2023-02-11T01:31:01;103028.47;;;5.46;76.35
10167;BME280;62970;53.130;8.244;2023-02-11T01:33:31;103038.00;;;5.47;76.16
10167;BME280;62970;53.130;8.244;2023-02-11T01:36:06;103036.25;;;5.46;76.59
10167;BME280;62970;53.130;8.244;2023-02-11T01:38:37;103026.81;;;5.48;76.44
10167;BME280;62970;53.130;8.244;2023-02-11T01:41:12;103033.72;;;5.47;76.31
10167;BME280;62970;53.130;8.244;2023-02-11T01:43:47;103030.28;;;5.48;76.41
10167;BME280;62970;53.130;8.244;2023-02-11T01:46:34;103032.88;;;5.48;76.42
10167;BME280;62970;53.130;8.244;2023-02-11T01:49:09;103032.06;;;5.49;76.21
10167;BME280;62970;53.130;8.244;2023-02-11T01:51:45;103033.75;;;5.49;76.03
10167;BME280;62970;53.130;8.244;2023-02-11T08:17:03;103001.34;;;6.45;80.79
10167;BME280;62970;53.130;8.244;2023-02-11T08:19:35;103006.66;;;6.50;80.67
10167;BME280;62970;53.130;8.244;2023-02-11T08:22:04;103007.63;;;6.53;80.39
10167;BME280;62970;53.130;8.244;2023-02-11T08:24:35;103007.78;;;6.59;80.67
10167;BME280;62970;53.130;8.244;2023-02-11T08:27:04;103010.56;;;6.65;80.24
10167;BME280;62970;53.130;8.244;2023-02-11T08:29:34;103023.69;;;6.72;80.16
10167;BME280;62970;53.130;8.244;2023-02-11T08:32:07;103029.00;;;6.76;80.10
10167;BME280;62970;53.130;8.244;2023-02-11T08:34:37;103022.19;;;6.80;79.76
10167;BME280;62970;53.130;8.244;2023-02-11T08:37:08;103032.69;;;6.84;79.53
10167;BME280;62970;53.130;8.244;2023-02-11T08:39:40;103034.47;;;6.87;79.54
10167;BME280;62970;53.130;8.244;2023-02-11T08:42:11;103048.41;;;6.90;79.46
10167;BME280;62970;53.130;8.244;2023-02-11T08:44:41;103044.19;;;6.94;79.35
10167;BME280;62970;53.130;8.244;2023-02-11T08:47:13;103049.50;;;6.98;79.38
10167;BME280;62970;53.130;8.244;2023-02-11T08:49:45;103052.09;;;6.98;78.91
10167;BME280;62970;53.130;8.244;2023-02-11T08:52:17;103064.31;;;7.03;79.34
10167;BME280;62970;53.130;8.244;2023-02-11T08:54:51;103060.91;;;7.05;78.73
10167;BME280;62970;53.130;8.244;2023-02-11T08:57:22;103060.00;;;7.03;79.29
10167;BME280;62970;53.130;8.244;2023-02-11T08:59:54;103071.34;;;7.07;78.61
10167;BME280;62970;53.130;8.244;2023-02-11T09:02:27;103075.69;;;7.08;79.03
10167;BME280;62970;53.130;8.244;2023-02-11T09:04:57;103074.88;;;7.10;78.48
10167;BME280;62970;53.130;8.244;2023-02-11T09:07:27;103075.72;;;7.09;78.41
10167;BME280;62970;53.130;8.244;2023-02-11T09:09:59;103078.31;;;7.09;78.30
10167;BME280;62970;53.130;8.244;2023-02-11T09:12:28;103083.56;;;7.11;78.62
10167;BME280;62970;53.130;8.244;2023-02-11T09:14:58;103082.66;;;7.10;78.88
10167;BME280;62970;53.130;8.244;2023-02-11T09:17:30;103088.78;;;7.12;78.44
10167;BME280;62970;53.130;8.244;2023-02-11T09:27:47;103098.38;;;7.15;78.49
10167;BME280;62970;53.130;8.244;2023-02-11T09:30:17;103089.78;;;7.17;78.86
10167;BME280;62970;53.130;8.244;2023-02-11T09:32:52;103096.81;;;7.20;79.08
10167;BME280;62970;53.130;8.244;2023-02-11T09:35:21;103090.84;;;7.24;78.79
10167;BME280;62970;53.130;8.244;2023-02-11T09:37:50;103097.81;;;7.25;79.01
10167;BME280;62970;53.130;8.244;2023-02-11T09:40:19;103096.13;;;7.27;78.68
10167;BME280;62970;53.130;8.244;2023-02-11T09:43:01;103097.88;;;7.28;78.99
10167;BME280;62970;53.130;8.244;2023-02-11T09:45:34;103103.97;;;7.28;78.52
10167;BME280;62970;53.130;8.244;2023-02-11T09:48:14;103110.06;;;7.30;79.06
10167;BME280;62970;53.130;8.244;2023-02-11T09:50:49;103117.06;;;7.33;78.56
10167;BME280;62970;53.130;8.244;2023-02-11T09:53:23;103120.56;;;7.35;78.86
10167;BME280;62970;53.130;8.244;2023-02-11T09:55:56;103127.47;;;7.35;78.90
10167;BME280;62970;53.130;8.244;2023-02-11T09:58:31;103125.81;;;7.37;78.67
10167;BME280;62970;53.130;8.244;2023-02-11T10:01:11;103128.44;;;7.38;79.10
10167;BME280;62970;53.130;8.244;2023-02-11T10:04:03;103127.56;;;7.38;79.11
10167;BME280;62970;53.130;8.244;2023-02-11T10:06:40;103127.69;;;7.41;78.81
10167;BME280;62970;53.130;8.244;2023-02-11T10:09:32;103138.06;;;7.41;79.14
10167;BME280;62970;53.130;8.244;2023-02-11T10:12:22;103145.06;;;7.43;79.21
10167;BME280;62970;53.130;8.244;2023-02-11T10:15:13;103145.09;;;7.45;79.26
10167;BME280;62970;53.130;8.244;2023-02-11T10:18:12;103153.81;;;7.47;79.26
10167;BME280;62970;53.130;8.244;2023-02-11T10:20:54;103149.53;;;7.49;78.91
10167;BME280;62970;53.130;8.244;2023-02-11T10:23:34;103156.56;;;7.53;79.30
10167;BME280;62970;53.130;8.244;2023-02-11T10:28:44;103150.59;;;7.57;79.23
10167;BME280;62970;53.130;8.244;2023-02-11T10:31:17;103148.06;;;7.58;79.20
10167;BME280;62970;53.130;8.244;2023-02-11T10:33:55;103143.78;;;7.60;78.50
10167;BME280;62970;53.130;8.244;2023-02-11T10:36:34;103142.22;;;7.67;78.88
10167;BME280;62970;53.130;8.244;2023-02-11T10:39:13;103140.63;;;7.72;78.73
10167;BME280;62970;53.130;8.244;2023-02-11T10:41:45;103136.41;;;7.77;79.06
10167;BME280;62970;53.130;8.244;2023-02-11T10:44:30;103148.69;;;7.83;78.90
10167;BME280;62970;53.130;8.244;2023-02-11T10:47:05;103133.22;;;7.87;78.76
10167;BME280;62970;53.130;8.244;2023-02-11T10:49:39;103133.28;;;7.90;78.58
10167;BME280;62970;53.130;8.244;2023-02-11T10:52:20;103132.53;;;7.94;78.65
10167;BME280;62970;53.130;8.244;2023-02-11T10:55:02;103134.34;;;7.99;78.23
10167;BME280;62970;53.130;8.244;2023-02-11T10:57:37;103138.78;;;8.03;78.26
10167;BME280;62970;53.130;8.244;2023-02-11T11:00:30;103144.94;;;8.06;78.09
10167;BME280;62970;53.130;8.244;2023-02-11T11:03:03;103136.34;;;8.10;78.41
10167;BME280;62970;53.130;8.244;2023-02-11T11:05:36;103146.81;;;8.13;77.82
10167;BME280;62970;53.130;8.244;2023-02-11T11:08:17;103147.78;;;8.17;78.36
10167;BME280;62970;53.130;8.244;2023-02-11T11:11:02;103149.66;;;8.22;77.78
10167;BME280;62970;53.130;8.244;2023-02-11T11:13:35;103153.16;;;8.24;77.82
10167;BME280;62970;53.130;8.244;2023-02-11T11:16:19;103148.88;;;8.26;77.53
10167;BME280;62970;53.130;8.244;2023-02-11T11:18:50;103151.50;;;8.28;77.30
10167;BME280;62970;53.130;8.244;2023-02-11T11:21:23;103154.13;;;8.30;77.83
10167;BME280;62970;53.130;8.244;2023-02-11T11:23:58;103162.88;;;8.33;77.69
10167;BME280;62970;53.130;8.244;2023-02-11T11:52:42;103186.38;;;8.36;76.63
10167;BME280;62970;53.130;8.244;2023-02-11T11:55:24;103193.28;;;8.36;77.04
10167;BME280;62970;53.130;8.244;2023-02-11T11:57:55;103185.53;;;8.37;76.83
10167;BME280;62970;53.130;8.244;2023-02-11T12:00:31;103181.22;;;8.39;76.63
10167;BME280;62970;53.130;8.244;2023-02-11T12:06:25;103183.06;;;8.43;76.74
10167;BME280;62970;53.130;8.244;2023-02-11T12:09:15;103174.41;;;8.44;76.87
10167;BME280;62970;53.130;8.244;2023-02-11T12:20:31;103181.47;;;8.50;76.63
10167;BME280;62970;53.130;8.244;2023-02-11T12:23:26;103186.69;;;8.50;76.68
10167;BME280;62970;53.130;8.244;2023-02-11T12:26:11;103177.94;;;8.46;76.19
10167;BME280;62970;53.130;8.244;2023-02-11T12:29:03;103179.69;;;8.47;76.50
10167;BME280;62970;53.130;8.244;2023-02-11T12:31:49;103172.75;;;8.48;76.55
10167;BME280;62970;53.130;8.244;2023-02-11T12:37:31;103167.59;;;8.49;76.40
10167;BME280;62970;53.130;8.244;2023-02-11T12:40:15;103177.22;;;8.53;76.53
10167;BME280;62970;53.130;8.244;2023-02-11T12:43:13;103173.81;;;8.56;76.29
10167;BME280;62970;53.130;8.244;2023-02-11T12:46:35;103172.94;;;8.55;76.65
10167;BME280;62970;53.130;8.244;2023-02-11T13:00:06;103166.53;;;8.77;76.38
10167;BME280;62970;53.130;8.244;2023-02-11T13:02:44;103155.38;;;8.83;76.31
10167;BME280;62970;53.130;8.244;2023-02-11T13:05:25;103163.28;;;8.89;76.07
10167;BME280;62970;53.130;8.244;2023-02-11T13:08:03;103163.34;;;8.90;76.00
10167;BME280;62970;53.130;8.244;2023-02-11T13:10:37;103166.06;;;8.97;75.93
10167;BME280;62970;53.130;8.244;2023-02-11T13:13:18;103173.94;;;9.00;76.06
10167;BME280;62970;53.130;8.244;2023-02-11T13:16:00;103172.22;;;9.02;75.88
10167;BME280;62970;53.130;8.244;2023-02-11T13:18:49;103183.50;;;9.01;75.39
10167;BME280;62970;53.130;8.244;2023-02-11T13:21:36;103187.81;;;9.00;75.42
10167;BME280;62970;53.130;8.244;2023-02-11T13:24:21;103194.69;;;8.97;75.52
10167;BME280;62970;53.130;8.244;2023-02-11T13:27:02;103192.91;;;8.94;75.54
10167;BME280;62970;53.130;8.244;2023-02-11T13:29:52;103207.59;;;8.92;75.48
10167;BME280;62970;53.130;8.244;2023-02-11T13:39:00;103202.16;;;8.81;75.61
10167;BME280;62970;53.130;8.244;2023-02-11T13:41:36;103203.88;;;8.81;75.44
10167;BME280;62970;53.130;8.244;2023-02-11T13:44:24;103188.25;;;8.79;75.81
10167;BME280;62970;53.130;8.244;2023-02-11T13:46:58;103199.56;;;8.81;75.33
10167;BME280;62970;53.130;8.244;2023-02-11T13:49:49;103200.41;;;8.80;75.57
10167;BME280;62970;53.130;8.244;2023-02-11T13:52:26;103206.53;;;8.82;75.77
10167;BME280;62970;53.130;8.244;2023-02-11T13:55:02;103212.56;;;8.81;74.92
10167;BME280;62970;53.130;8.244;2023-02-11T13:57:38;103202.97;;;8.79;75.10
10167;BME280;62970;53.130;8.244;2023-02-11T14:00:42;103202.03;;;8.77;75.69
10167;BME280;62970;53.130;8.244;2023-02-11T14:03:31;103210.75;;;8.77;75.38
10167;BME280;62970;53.130;8.244;2023-02-11T14:32:33;103198.00;;;8.89;74.91
10167;BME280;62970;53.130;8.244;2023-02-11T14:40:26;103208.34;;;8.86;74.90
10167;BME280;62970;53.130;8.244;2023-02-11T14:43:06;103212.66;;;8.86;75.16
10167;BME280;62970;53.130;8.244;2023-02-11T14:45:49;103205.78;;;8.88;75.14
10167;BME280;62970;53.130;8.244;2023-02-11T14:48:32;103213.59;;;8.88;74.99
10167;BME280;62970;53.130;8.244;2023-02-11T14:51:07;103217.09;;;8.90;74.33
10167;BME280;62970;53.130;8.244;2023-02-11T15:01:39;103231.72;;;8.85;74.39
10167;BME280;62970;53.130;8.244;2023-02-11T15:09:49;103237.78;;;8.84;74.70
10167;BME280;62970;53.130;8.244;2023-02-11T15:12:23;103237.81;;;8.85;74.53
10167;BME280;62970;53.130;8.244;2023-02-11T15:17:31;103236.00;;;8.83;74.12
10167;BME280;62970;53.130;8.244;2023-02-11T15:20:02;103242.94;;;8.82;74.47
10167;BME280;62970;53.130;8.244;2023-02-11T15:22:36;103241.19;;;8.81;74.50
10167;BME280;62970;53.130;8.244;2023-02-11T15:25:16;103250.69;;;8.79;74.28
10167;BME280;62970;53.130;8.244;2023-02-11T15:27:52;103253.25;;;8.78;74.44
10167;BME280;62970;53.130;8.244;2023-02-11T15:38:10;103263.47;;;8.72;74.38
10167;BME280;62970;53.130;8.244;2023-02-11T15:41:02;103259.97;;;8.70;74.51
10167;BME280;62970;53.130;8.244;2023-02-11T15:43:47;103267.72;;;8.68;74.64
10167;BME280;62970;53.130;8.244;2023-02-11T15:46:21;103263.34;;;8.66;74.75
10167;BME280;62970;53.130;8.244;2023-02-11T15:48:53;103270.28;;;8.67;74.29
10167;BME280;62970;53.130;8.244;2023-02-11T15:51:28;103271.16;;;8.67;74.73
10167;BME280;62970;53.130;8.244;2023-02-11T15:54:03;103265.03;;;8.64;74.62
10167;BME280;62970;53.130;8.244;2023-02-11T15:56:40;103266.66;;;8.60;74.55
10167;BME280;62970;53.130;8.244;2023-02-11T15:59:19;103271.00;;;8.59;74.51
10167;BME280;62970;53.130;8.244;2023-02-11T16:01:53;103276.16;;;8.58;74.41
10167;BME280;62970;53.130;8.244;2023-02-11T16:04:26;103280.47;;;8.57;74.24
10167;BME280;62970;53.130;8.244;2023-02-11T16:12:24;103295.06;;;8.51;74.40
10167;BME280;62970;53.130;8.244;2023-02-11T16:14:58;103296.75;;;8.49;74.45
10167;BME280;62970;53.130;8.244;2023-02-11T16:17:47;103293.22;;;8.47;74.31
10167;BME280;62970;53.130;8.244;2023-02-11T16:20:18;103297.53;;;8.46;74.58
10167;BME280;62970;53.130;8.244;2023-02-11T16:22:51;103296.59;;;8.43;74.47
10167;BME280;62970;53.130;8.244;2023-02-11T16:25:22;103300.91;;;8.42;74.57
10167;BME280;62970;53.130;8.244;2023-02-11T16:27:58;103308.66;;;8.41;74.54
10167;BME280;62970;53.130;8.244;2023-02-11T16:30:36;103293.03;;;8.39;74.62
10167;BME280;62970;53.130;8.244;2023-02-11T16:33:07;103304.38;;;8.43;74.83
10167;BME280;62970;53.130;8.244;2023-02-11T16:35:41;103298.34;;;8.44;74.41
10167;BME280;62970;53.130;8.244;2023-02-11T16:38:12;103281.81;;;8.42;74.36
10167;BME280;62970;53.130;8.244;2023-02-11T16:40:47;103285.28;;;8.41;74.70
10167;BME280;62970;53.130;8.244;2023-02-11T16:43:21;103292.94;;;8.36;74.31
10167;BME280;62970;53.130;8.244;2023-02-11T16:45:51;103294.69;;;8.36;74.48
10167;BME280;62970;53.130;8.244;2023-02-11T16:48:23;103303.25;;;8.32;74.28
10167;BME280;62970;53.130;8.244;2023-02-11T16:50:55;103294.56;;;8.31;74.62
10167;BME280;62970;53.130;8.244;2023-02-11T17:19:21;103328.41;;;8.01;74.36
10167;BME280;62970;53.130;8.244;2023-02-11T17:21:52;103333.53;;;7.98;74.21
10167;BME280;62970;53.130;8.244;2023-02-11T17:37:15;103331.97;;;7.73;74.22
10167;BME280;62970;53.130;8.244;2023-02-11T17:39:45;103349.28;;;7.73;74.27
10167;BME280;62970;53.130;8.244;2023-02-11T17:42:16;103350.06;;;7.70;74.17
10167;BME280;62970;53.130;8.244;2023-02-11T17:47:35;103352.56;;;7.67;74.90
10167;BME280;62970;53.130;8.244;2023-02-11T17:50:07;103355.16;;;7.67;74.48
10167;BME280;62970;53.130;8.244;2023-02-11T17:52:41;103356.00;;;7.66;74.95
10167;BME280;62970;53.130;8.244;2023-02-11T17:55:10;103351.69;;;7.67;74.62
10167;BME280;62970;53.130;8.244;2023-02-11T18:13:03;103372.16;;;8.49;69.72
10167;BME280;62970;53.130;8.244;2023-02-11T18:15:34;103376.16;;;8.36;70.00
10167;BME280;62970;53.130;8.244;2023-02-11T18:18:04;103378.41;;;8.24;70.95
10167;BME280;62970;53.130;8.244;2023-02-11T18:20:34;103383.31;;;8.13;71.06
10167;BME280;62970;53.130;8.244;2023-02-11T18:23:05;103381.34;;;8.05;71.95
10167;BME280;62970;53.130;8.244;2023-02-11T18:25:35;103385.50;;;7.98;72.09
10167;BME280;62970;53.130;8.244;2023-02-11T18:28:08;103384.44;;;7.91;72.22
10167;BME280;62970;53.130;8.244;2023-02-11T18:30:37;103396.47;;;7.88;72.67
10167;BME280;62970;53.130;8.244;2023-02-11T18:33:06;103400.69;;;7.84;72.72
10167;BME280;62970;53.130;8.244;2023-02-11T18:35:40;103405.00;;;7.84;73.12
10167;BME280;62970;53.130;8.244;2023-02-11T18:38:13;103413.63;;;7.83;73.41
10167;BME280;62970;53.130;8.244;2023-02-11T18:40:44;103410.16;;;7.82;73.56
10167;BME280;62970;53.130;8.244;2023-02-11T18:43:20;103416.22;;;7.83;73.66
10167;BME280;62970;53.130;8.244;2023-02-11T18:45:50;103422.31;;;7.83;73.82
10167;BME280;62970;53.130;8.244;2023-02-11T18:48:21;103411.09;;;7.84;74.11
10167;BME280;62970;53.130;8.244;2023-02-11T18:50:53;103419.75;;;7.85;73.91
10167;BME280;62970;53.130;8.244;2023-02-11T18:53:23;103418.88;;;7.84;73.94
10167;BME280;62970;53.130;8.244;2023-02-11T18:55:54;103424.91;;;7.83;74.04
10167;BME280;62970;53.130;8.244;2023-02-11T18:58:26;103423.16;;;7.82;74.11
10167;BME280;62970;53.130;8.244;2023-02-11T19:00:57;103426.59;;;7.81;74.12
10167;BME280;62970;53.130;8.244;2023-02-11T19:03:31;103426.59;;;7.81;74.25
10167;BME280;62970;53.130;8.244;2023-02-11T19:06:00;103425.69;;;7.81;74.29
10167;BME280;62970;53.130;8.244;2023-02-11T19:08:30;103429.13;;;7.80;73.74
10167;BME280;62970;53.130;8.244;2023-02-11T19:11:03;103425.63;;;7.78;73.75
10167;BME280;62970;53.130;8.244;2023-02-11T19:13:34;103435.97;;;7.76;73.86
10167;BME280;62970;53.130;8.244;2023-02-11T19:16:07;103427.28;;;7.76;74.31
10167;BME280;62970;53.130;8.244;2023-02-11T19:18:39;103436.78;;;7.75;74.22
10167;BME280;62970;53.130;8.244;2023-02-11T19:21:10;103436.75;;;7.74;74.38
10167;BME280;62970;53.130;8.244;2023-02-11T19:23:43;103436.75;;;7.74;74.40
10167;BME280;62970;53.130;8.244;2023-02-11T19:26:12;103441.97;;;7.75;74.31
10167;BME280;62970;53.130;8.244;2023-02-11T19:28:44;103438.47;;;7.73;74.03
10167;BME280;62970;53.130;8.244;2023-02-11T19:31:17;103449.72;;;7.74;73.91
10167;BME280;62970;53.130;8.244;2023-02-11T19:33:49;103451.44;;;7.73;74.49
10167;BME280;62970;53.130;8.244;2023-02-11T19:36:18;103447.13;;;7.74;74.14
10167;BME280;62970;53.130;8.244;2023-02-11T19:38:47;103452.31;;;7.74;73.98
10167;BME280;62970;53.130;8.244;2023-02-11T19:41:17;103455.84;;;7.76;74.24
10167;BME280;62970;53.130;8.244;2023-02-11T19:43:52;103461.03;;;7.76;74.42
10167;BME280;62970;53.130;8.244;2023-02-11T19:46:23;103453.22;;;7.74;74.12
10167;BME280;62970;53.130;8.244;2023-02-11T19:48:57;103459.34;;;7.76;74.41
10167;BME280;62970;53.130;8.244;2023-02-11T19:51:30;103457.53;;;7.74;74.43
10167;BME280;62970;53.130;8.244;2023-02-11T19:54:10;103449.69;;;7.72;74.43
10167;BME280;62970;53.130;8.244;2023-02-11T19:56:40;103459.25;;;7.73;74.18
10167;BME280;62970;53.130;8.244;2023-02-11T19:59:22;103466.09;;;7.71;73.96
10167;BME280;62970;53.130;8.244;2023-02-11T20:01:52;103471.28;;;7.71;74.40
10167;BME280;62970;53.130;8.244;2023-02-11T20:04:22;103481.72;;;7.73;74.21
10167;BME280;62970;53.130;8.244;2023-02-11T20:06:52;103492.06;;;7.71;74.25
10167;BME280;62970;53.130;8.244;2023-02-11T20:09:22;103481.69;;;7.71;74.47
10167;BME280;62970;53.130;8.244;2023-02-11T20:11:51;103482.56;;;7.72;74.05
10167;BME280;62970;53.130;8.244;2023-02-11T20:14:23;103474.78;;;7.72;74.36
10167;BME280;62970;53.130;8.244;2023-02-11T20:16:52;103483.44;;;7.72;74.22
10167;BME280;62970;53.130;8.244;2023-02-11T20:19:22;103479.97;;;7.72;74.48
10167;BME280;62970;53.130;8.244;2023-02-11T20:21:53;103479.03;;;7.70;73.86
10167;BME280;62970;53.130;8.244;2023-02-11T20:24:24;103482.47;;;7.69;74.36
10167;BME280;62970;53.130;8.244;2023-02-11T20:26:57;103487.63;;;7.67;74.21
10167;BME280;62970;53.130;8.244;2023-02-11T20:29:29;103491.09;;;7.68;74.01
10167;BME280;62970;53.130;8.244;2023-02-11T20:31:59;103492.81;;;7.67;74.04
10167;BME280;62970;53.130;8.244;2023-02-11T20:34:32;103494.53;;;7.67;74.12
10167;BME280;62970;53.130;8.244;2023-02-11T20:37:07;103504.03;;;7.66;73.99
10167;BME280;62970;53.130;8.244;2023-02-11T20:39:38;103498.78;;;7.65;74.18
10167;BME280;62970;53.130;8.244;2023-02-11T20:42:08;103495.25;;;7.62;74.36
10167;BME280;62970;53.130;8.244;2023-02-11T20:44:45;103489.19;;;7.62;74.54
10167;BME280;62970;53.130;8.244;2023-02-11T20:47:14;103501.34;;;7.63;74.56
10167;BME280;62970;53.130;8.244;2023-02-11T20:49:44;103504.00;;;7.65;74.35
10167;BME280;62970;53.130;8.244;2023-02-11T20:52:13;103505.66;;;7.62;74.13
10167;BME280;62970;53.130;8.244;2023-02-11T20:54:45;103511.78;;;7.65;74.07
10167;BME280;62970;53.130;8.244;2023-02-11T20:57:14;103510.91;;;7.64;74.16
10167;BME280;62970;53.130;8.244;2023-02-11T20:59:46;103510.03;;;7.63;74.48
10167;BME280;62970;53.130;8.244;2023-02-11T21:02:15;103508.31;;;7.64;74.31
10167;BME280;62970;53.130;8.244;2023-02-11T21:04:47;103507.38;;;7.62;74.38
10167;BME280;62970;53.130;8.244;2023-02-11T21:07:16;103514.28;;;7.61;74.02
10167;BME280;62970;53.130;8.244;2023-02-11T21:09:45;103519.47;;;7.61;74.00
10167;BME280;62970;53.130;8.244;2023-02-11T21:12:15;103516.88;;;7.61;74.29
10167;BME280;62970;53.130;8.244;2023-02-11T21:14:47;103515.13;;;7.60;74.34
10167;BME280;62970;53.130;8.244;2023-02-11T21:17:18;103520.34;;;7.62;74.24
10167;BME280;62970;53.130;8.244;2023-02-11T21:19:48;103529.91;;;7.63;74.78
10167;BME280;62970;53.130;8.244;2023-02-11T21:22:17;103526.53;;;7.66;74.38
10167;BME280;62970;53.130;8.244;2023-02-11T21:24:49;103524.81;;;7.66;74.35
10167;BME280;62970;53.130;8.244;2023-02-11T21:27:18;103530.00;;;7.66;74.34
10167;BME280;62970;53.130;8.244;2023-02-11T21:29:51;103541.28;;;7.67;74.43
10167;BME280;62970;53.130;8.244;2023-02-11T21:32:20;103541.28;;;7.67;74.79
10167;BME280;62970;53.130;8.244;2023-02-11T21:34:50;103555.16;;;7.67;74.39
10167;BME280;62970;53.130;8.244;2023-02-11T21:37:19;103558.53;;;7.65;74.74
10167;BME280;62970;53.130;8.244;2023-02-11T21:39:52;103565.50;;;7.66;74.68
10167;BME280;62970;53.130;8.244;2023-02-11T21:42:23;103562.84;;;7.64;74.60
10167;BME280;62970;53.130;8.244;2023-02-11T21:44:55;103561.97;;;7.63;74.58
10167;BME280;62970;53.130;8.244;2023-02-11T21:47:25;103563.72;;;7.65;74.78
10167;BME280;62970;53.130;8.244;2023-02-11T21:49:56;103562.84;;;7.64;74.69
10167;BME280;62970;53.130;8.244;2023-02-11T21:52:32;103568.03;;;7.64;74.53
10167;BME280;62970;53.130;8.244;2023-02-11T21:55:02;103569.75;;;7.63;74.51
10167;BME280;62970;53.130;8.244;2023-02-11T21:57:31;103574.00;;;7.61;74.27
10167;BME280;62970;53.130;8.244;2023-02-11T22:00:05;103568.81;;;7.61;74.23
10167;BME280;62970;53.130;8.244;2023-02-11T22:02:37;103583.50;;;7.61;74.32
10167;BME280;62970;53.130;8.244;2023-02-11T22:05:07;103580.03;;;7.60;74.73
10167;BME280;62970;53.130;8.244;2023-02-11T22:07:36;103578.28;;;7.59;74.74
10167;BME280;62970;53.130;8.244;2023-02-11T22:10:08;103579.09;;;7.58;74.69
10167;BME280;62970;53.130;8.244;2023-02-11T22:12:37;103584.28;;;7.58;74.59
10167;BME280;62970;53.130;8.244;2023-02-11T22:15:11;103588.56;;;7.56;74.67
10167;BME280;62970;53.130;8.244;2023-02-11T22:17:41;103585.91;;;7.55;74.74
10167;BME280;62970;53.130;8.244;2023-02-11T22:20:11;103588.47;;;7.53;74.71
10167;BME280;62970;53.130;8.244;2023-02-11T22:22:42;103591.88;;;7.52;74.61
10167;BME280;62970;53.130;8.244;2023-02-11T22:25:11;103593.53;;;7.50;74.87
10167;BME280;62970;53.130;8.244;2023-02-11T22:27:41;103589.13;;;7.48;74.64
10167;BME280;62970;53.130;8.244;2023-02-11T22:30:14;103595.09;;;7.45;74.79
10167;BME280;62970;53.130;8.244;2023-02-11T22:32:44;103607.16;;;7.43;75.10
10167;BME280;62970;53.130;8.244;2023-02-11T22:35:13;103606.22;;;7.41;74.92
10167;BME280;62970;53.130;8.244;2023-02-11T22:37:42;103611.31;;;7.40;74.96
10167;BME280;62970;53.130;8.244;2023-02-11T22:40:12;103607.75;;;7.36;74.82
10167;BME280;62970;53.130;8.244;2023-02-11T22:42:42;103611.13;;;7.34;74.87
10167;BME280;62970;53.130;8.244;2023-02-11T22:45:13;103623.09;;;7.30;75.40
10167;BME280;62970;53.130;8.244;2023-02-11T22:47:43;103625.66;;;7.28;75.26
10167;BME280;62970;53.130;8.244;2023-02-11T22:50:13;103624.72;;;7.26;75.41
10167;BME280;62970;53.130;8.244;2023-02-11T22:52:42;103629.91;;;7.26;75.33
10167;BME280;62970;53.130;8.244;2023-02-11T22:55:11;103621.19;;;7.24;75.71
10167;BME280;62970;53.130;8.244;2023-02-11T22:57:42;103632.38;;;7.23;75.53
10167;BME280;62970;53.130;8.244;2023-02-11T23:02:45;103639.25;;;7.21;75.71
10167;BME280;62970;53.130;8.244;2023-02-11T23:05:15;103636.59;;;7.20;76.07
10167;BME280;62970;53.130;8.244;2023-02-11T23:07:45;103639.09;;;7.18;75.78